Kimball, Idaho
Current Conditions -  °F | °C
As of 10:53 AM on Saturday 20 Dec 2014 (Local Time) from KIDA Reporting Station
Light Snow Light Snow  
Wind Chill: 26°   Ceiling: 400
Heat Index: 33°   Visibility: 1.2mi
Dew Point: 32°   Wind: 8mph
Humidity: 96%   Direction: 190°S
Pressure: 30.06"   Gusts: NA
Location:  43.192°N, 111.839°W
Report Text: KIDA 201753Z 19007KT 1 1/4SM R20/4000VP6000FT -SN BR BKN004 OVC010 01/00 A3006 RMK AO2 SLP196 P0002 60003 T00060000 10017 20006 50002
Loading
Personal Weather Stations






























Interactive Weather Map New forecast layout! Learn more

10-Day Weather Forecast

Advertisements
Track Severe Weather on mobile